Terminal Aerodrome Forecast
Issued by NWS Wakefield, VA

Home | Current Version | Previous Version | Text Only | Print | Product List | Glossary On
Versions: 1 2 3 4 5 6 7 8 9 10 11 12 13
000
FTUS41 KAKQ 181720
TAFECG
TAF
KECG 181720Z 1818/1918 20012G22KT P6SM BKN250
     FM190400 20019G29KT P6SM BKN200 WS020/21045KT
     FM190900 21020G30KT P6SM BKN050
     FM191300 25020G30KT P6SM BKN080
     FM191400 29020G30KT P6SM SCT100=

USA.gov is the U.S. government's official web portal to all federal, state and local government web resources and services.